Henry, Nebraska
Current Conditions -  °F | °C
As of 3:53 PM on Friday 28 Nov 2014 (Local Time) from KTOR Reporting Station
Clear Clear  
Wind Chill: 62°   Ceiling: Unl
Heat Index: 62°   Visibility: 10mi
Dew Point: 13°   Wind: 15mph
Humidity: 15%   Direction: 290°WNW
Pressure: 29.73"   Gusts: 26mph
Location:  42°N, 104.05°W
Report Text: KTOR 282253Z AUTO 29013G23KT 10SM CLR 17/M11 A2973 RMK AO2 PK WND 29035/2221 SLP040 T01671106
Loading
Personal Weather Stations






























Interactive Weather Map New forecast layout! Learn more

10-Day Weather Forecast

Advertisements
Track Severe Weather on mobile